Time;durP1;ratioP1;P1;durP2;ratioP2;P2;SDS_P1;SDS_P2;PMS_P1;PMS_P2;Temp;Humidity;BMP_temperature;BMP_pressure;BME280_temperature;BME280_humidity;BME280_pressure;Samples;Min_cycle;Max_cycle;Signal;HPM_P1;HPM_P2
2023/05/25 00:01:25;;;;;;;0.90;0.80;;;9.00;99.90;;;;;;5070130;28;20056;-74
2023/05/25 00:03:54;;;;;;;0.60;0.60;;;9.10;99.90;;;;;;5053125;28;20058;-74
2023/05/25 00:06:20;;;;;;;1.25;1.20;;;9.00;99.90;;;;;;5054119;28;20498;-74
2023/05/25 00:08:46;;;;;;;0.82;0.82;;;9.10;99.90;;;;;;5070756;28;20047;-74
2023/05/25 00:11:13;;;;;;;0.40;0.40;;;8.90;99.90;;;;;;5071152;28;20044;-74
2023/05/25 00:13:39;;;;;;;0.40;0.40;;;8.90;99.90;;;;;;5070366;28;20106;-74
2023/05/25 00:16:05;;;;;;;0.70;0.70;;;8.80;99.90;;;;;;5069608;28;20040;-74
2023/05/25 00:18:32;;;;;;;;;;;8.80;99.90;;;;;;5053577;28;20127;-74
2023/05/25 00:21:04;;;;;;;0.55;0.55;;;8.60;99.90;;;;;;5069506;28;19964;-74
2023/05/25 00:23:30;;;;;;;0.60;0.60;;;8.50;99.90;;;;;;5074185;28;20055;-74
2023/05/25 00:25:56;;;;;;;0.50;0.50;;;8.40;99.90;;;;;;5061297;28;20127;-74
2023/05/25 00:28:22;;;;;;;0.40;0.40;;;8.30;99.90;;;;;;5069738;28;20071;-74
2023/05/25 00:30:47;;;;;;;0.40;0.40;;;8.20;99.90;;;;;;5069505;28;20654;-74
2023/05/25 00:33:14;;;;;;;0.57;0.57;;;8.20;99.90;;;;;;5052165;28;20084;-74
2023/05/25 00:35:41;;;;;;;0.50;0.50;;;8.30;99.90;;;;;;5052596;28;20055;-75
2023/05/25 00:38:17;;;;;;;0.40;0.40;;;8.20;99.90;;;;;;5068835;28;20164;-74
2023/05/25 00:40:44;;;;;;;0.50;0.50;;;8.20;99.90;;;;;;5069809;28;20553;-74
2023/05/25 00:43:10;;;;;;;0.47;0.47;;;8.20;99.90;;;;;;5080235;28;20443;-74
2023/05/25 00:45:36;;;;;;;0.50;0.50;;;8.20;99.90;;;;;;5071601;28;20097;-74
2023/05/25 00:48:05;;;;;;;0.50;0.50;;;8.40;99.90;;;;;;5068732;28;20090;-74
2023/05/25 00:50:43;;;;;;;0.57;0.50;;;8.10;99.90;;;;;;5052694;28;20044;-74
2023/05/25 00:53:10;;;;;;;0.50;0.50;;;8.30;99.90;;;;;;5051473;28;20048;-74
2023/05/25 00:55:44;;;;;;;0.43;0.43;;;8.10;99.90;;;;;;5069019;28;20090;-74
2023/05/25 00:58:12;;;;;;;0.50;0.50;;;8.10;99.90;;;;;;5068858;28;20379;-74
2023/05/25 01:00:41;;;;;;;0.40;0.40;;;8.10;99.90;;;;;;5068861;28;20051;-74
2023/05/25 01:03:16;;;;;;;0.40;0.40;;;8.10;99.90;;;;;;5068307;28;20072;-74
2023/05/25 01:05:44;;;;;;;0.52;0.52;;;8.00;99.90;;;;;;5069050;28;20402;-74
2023/05/25 01:08:12;;;;;;;0.73;0.73;;;8.10;99.90;;;;;;5068286;28;20084;-74
2023/05/25 01:10:41;;;;;;;0.63;0.63;;;8.00;99.90;;;;;;5068383;28;20331;-74
2023/05/25 01:13:08;;;;;;;0.50;0.50;;;8.00;99.90;;;;;;5068424;28;20394;-74
2023/05/25 01:15:36;;;;;;;0.57;0.57;;;7.90;99.90;;;;;;5051781;28;20102;-75
2023/05/25 01:18:02;;;;;;;0.60;0.60;;;8.00;99.90;;;;;;5075176;28;20043;-74
2023/05/25 01:20:31;;;;;;;0.40;0.40;;;7.80;99.90;;;;;;5106014;28;20394;-74
2023/05/25 01:23:04;;;;;;;0.50;0.50;;;7.90;99.90;;;;;;5076050;28;20079;-74
2023/05/25 01:25:36;;;;;;;0.40;0.40;;;8.00;99.90;;;;;;5068987;28;20559;-74
2023/05/25 01:28:10;;;;;;;0.50;0.50;;;7.80;99.90;;;;;;5069062;28;20367;-73
2023/05/25 01:30:38;;;;;;;0.45;0.45;;;7.90;99.90;;;;;;5068493;28;20095;-73
2023/05/25 01:33:06;;;;;;;0.50;0.50;;;7.80;99.90;;;;;;5068228;28;20048;-74
2023/05/25 01:35:34;;;;;;;0.40;0.40;;;8.00;99.90;;;;;;5068713;28;20052;-74
2023/05/25 01:38:00;;;;;;;0.55;0.55;;;8.00;99.90;;;;;;5068469;28;20135;-74
2023/05/25 01:40:26;;;;;;;;;;;8.10;99.90;;;;;;5069744;28;20044;-74
2023/05/25 01:42:51;;;;;;;0.40;0.40;;;8.00;99.90;;;;;;5077178;28;20362;-74
2023/05/25 01:45:17;;;;;;;0.38;0.38;;;7.90;99.90;;;;;;5073108;28;20105;-74
2023/05/25 01:48:24;;;;;;;0.70;0.70;;;7.90;99.90;;;;;;5051488;28;20453;-73
2023/05/25 01:51:06;;;;;;;0.47;0.47;;;8.00;99.90;;;;;;5066877;28;20060;-73
2023/05/25 01:53:36;;;;;;;0.50;0.50;;;7.90;99.90;;;;;;5068286;28;20596;-73
2023/05/25 01:56:07;;;;;;;0.50;0.50;;;7.90;99.90;;;;;;5068175;28;20128;-74
2023/05/25 01:58:43;;;;;;;0.57;0.57;;;7.90;99.90;;;;;;5051414;28;20102;-74
2023/05/25 02:01:11;;;;;;;0.40;0.40;;;7.80;99.90;;;;;;5067894;28;20356;-74
2023/05/25 02:03:38;;;;;;;0.40;0.40;;;7.80;99.90;;;;;;5068146;28;20044;-73
2023/05/25 02:06:04;;;;;;;0.32;0.32;;;7.90;99.90;;;;;;5067943;28;20386;-73
2023/05/25 02:08:30;;;;;;;0.32;0.32;;;7.70;99.90;;;;;;5067910;28;20074;-73
2023/05/25 02:10:55;;;;;;;1.75;0.93;;;7.80;99.90;;;;;;5051574;28;20044;-73
2023/05/25 02:13:21;;;;;;;0.50;0.50;;;7.70;99.90;;;;;;5067634;28;20094;-74
2023/05/25 02:15:47;;;;;;;0.68;0.63;;;7.90;99.90;;;;;;5087647;28;20123;-74
2023/05/25 02:18:12;;;;;;;0.63;0.63;;;7.70;99.90;;;;;;5100256;28;20044;-74
2023/05/25 02:20:38;;;;;;;0.50;0.47;;;7.70;99.90;;;;;;5068201;28;20078;-73
2023/05/25 02:23:04;;;;;;;0.40;0.40;;;7.70;99.90;;;;;;5067703;28;20040;-73
2023/05/25 02:25:30;;;;;;;0.98;0.98;;;7.90;99.90;;;;;;5067723;28;20127;-74
2023/05/25 02:27:56;;;;;;;0.50;0.50;;;7.70;99.90;;;;;;5068305;28;20131;-74
2023/05/25 02:30:22;;;;;;;0.40;0.40;;;7.60;99.90;;;;;;5067732;28;20043;-74
2023/05/25 02:32:47;;;;;;;0.50;0.50;;;7.70;99.90;;;;;;5068101;28;20040;-74
2023/05/25 02:35:13;;;;;;;0.63;0.63;;;7.40;99.90;;;;;;5067243;28;20562;-74
2023/05/25 02:37:39;;;;;;;0.43;0.43;;;7.40;99.90;;;;;;5067910;28;20048;-74
2023/05/25 02:40:05;;;;;;;0.60;0.60;;;7.40;99.90;;;;;;5051258;28;20044;-74
2023/05/25 02:42:31;;;;;;;;;;;7.30;99.90;;;;;;5076540;28;20044;-74
2023/05/25 02:44:56;;;;;;;0.60;0.60;;;7.30;99.90;;;;;;5080408;28;20305;-74
2023/05/25 02:47:22;;;;;;;0.50;0.50;;;7.20;99.90;;;;;;5071475;28;20051;-72
2023/05/25 02:49:48;;;;;;;0.57;0.57;;;7.30;99.90;;;;;;5071428;28;20033;-74
2023/05/25 02:52:14;;;;;;;0.40;0.40;;;7.30;99.90;;;;;;5071062;28;20055;-74
2023/05/25 02:54:40;;;;;;;0.40;0.40;;;7.20;99.90;;;;;;5071403;28;20052;-74
2023/05/25 02:57:07;;;;;;;0.60;0.60;;;7.30;99.90;;;;;;5054486;28;20121;-74
2023/05/25 02:59:33;;;;;;;0.50;0.50;;;7.30;99.90;;;;;;5054648;28;20051;-74
2023/05/25 03:01:58;;;;;;;0.50;0.50;;;7.40;99.90;;;;;;5054423;28;20486;-74
2023/05/25 03:04:25;;;;;;;0.38;0.38;;;7.30;99.90;;;;;;5070802;28;20063;-74
2023/05/25 03:06:50;;;;;;;0.40;0.40;;;7.40;99.90;;;;;;5071042;28;20120;-74
2023/05/25 03:09:16;;;;;;;0.60;0.60;;;7.50;99.90;;;;;;5070155;28;20154;-74
2023/05/25 03:11:42;;;;;;;0.40;0.40;;;7.40;99.90;;;;;;5088080;28;20044;-74
2023/05/25 03:14:09;;;;;;;0.90;0.82;;;7.60;99.90;;;;;;5098713;28;20529;-74
2023/05/25 03:16:37;;;;;;;0.50;0.50;;;7.60;99.90;;;;;;5050547;28;20049;-74
2023/05/25 03:19:04;;;;;;;0.38;0.38;;;7.70;99.90;;;;;;5049709;28;20049;-74
2023/05/25 03:21:31;;;;;;;0.40;0.40;;;7.70;99.90;;;;;;5050073;28;20399;-74
2023/05/25 03:23:56;;;;;;;0.30;0.30;;;7.60;99.90;;;;;;5050128;28;20087;-74
2023/05/25 03:26:24;;;;;;;0.50;0.50;;;7.70;99.90;;;;;;5065088;28;20434;-73
2023/05/25 03:28:51;;;;;;;0.43;0.43;;;7.70;99.90;;;;;;5070747;28;20504;-73
2023/05/25 03:31:17;;;;;;;0.55;0.55;;;7.70;99.90;;;;;;5070423;28;20500;-73
2023/05/25 03:33:43;;;;;;;0.50;0.50;;;7.60;99.90;;;;;;5070783;28;20204;-74
2023/05/25 03:36:09;;;;;;;0.50;0.50;;;7.80;99.90;;;;;;5069932;28;20502;-73
2023/05/25 03:38:38;;;;;;;1.65;0.70;;;7.70;99.90;;;;;;5070762;28;20199;-73
2023/05/25 03:41:04;;;;;;;0.80;0.80;;;8.00;99.90;;;;;;5070994;28;20457;-74
2023/05/25 03:43:30;;;;;;;3.58;1.30;;;7.70;99.90;;;;;;5067821;28;20563;-74
2023/05/25 03:45:56;;;;;;;;;;;7.70;99.90;;;;;;5070977;28;20162;-74
2023/05/25 03:48:22;;;;;;;0.30;0.30;;;7.70;99.90;;;;;;5053474;28;19924;-74
2023/05/25 03:50:47;;;;;;;0.52;0.52;;;7.70;99.90;;;;;;5070349;28;20044;-74
2023/05/25 03:53:13;;;;;;;0.50;0.50;;;7.80;99.90;;;;;;5069705;28;20131;-75
2023/05/25 03:55:39;;;;;;;0.50;0.50;;;7.80;99.90;;;;;;5052958;28;20557;-74
2023/05/25 03:58:04;;;;;;;0.60;0.60;;;7.80;99.90;;;;;;5054169;28;20135;-75
2023/05/25 04:00:30;;;;;;;0.60;0.60;;;7.90;99.90;;;;;;5070037;28;20044;-74
2023/05/25 04:02:57;;;;;;;0.50;0.50;;;7.90;99.90;;;;;;5054383;28;20500;-74
2023/05/25 04:05:23;;;;;;;0.63;0.63;;;8.00;99.90;;;;;;5070454;28;20921;-74
2023/05/25 04:07:49;;;;;;;0.43;0.43;;;8.10;99.90;;;;;;5052580;28;20044;-75
2023/05/25 04:10:14;;;;;;;0.93;0.93;;;8.10;99.90;;;;;;5106212;28;20512;-74
2023/05/25 04:12:40;;;;;;;0.50;0.50;;;8.30;99.90;;;;;;5070242;28;20040;-75
2023/05/25 04:15:08;;;;;;;0.60;0.60;;;8.10;99.90;;;;;;5070230;28;20045;-74
2023/05/25 04:17:34;;;;;;;0.68;0.68;;;8.20;99.90;;;;;;5070156;28;20078;-74
2023/05/25 04:20:01;;;;;;;0.60;0.60;;;8.30;99.90;;;;;;5069743;28;20502;-74
2023/05/25 04:22:27;;;;;;;0.50;0.50;;;8.30;99.90;;;;;;5069004;28;20050;-74
2023/05/25 04:24:53;;;;;;;0.55;0.55;;;8.40;99.90;;;;;;5053085;28;20052;-74
2023/05/25 04:27:19;;;;;;;0.55;0.55;;;8.30;99.90;;;;;;5052739;28;20059;-72
2023/05/25 04:29:45;;;;;;;0.82;0.80;;;8.40;99.90;;;;;;5069764;28;20051;-73
2023/05/25 04:32:16;;;;;;;3.10;1.42;;;8.40;99.90;;;;;;5053112;28;20040;-73
2023/05/25 04:34:43;;;;;;;0.40;0.40;;;8.40;99.90;;;;;;5053032;28;20544;-73
2023/05/25 04:37:09;;;;;;;0.85;0.85;;;8.50;99.90;;;;;;5069711;28;20060;-73
2023/05/25 04:39:35;;;;;;;0.63;0.63;;;8.50;99.90;;;;;;5053261;28;20087;-75
2023/05/25 04:42:04;;;;;;;0.57;0.57;;;8.50;99.90;;;;;;5070946;28;20082;-74
2023/05/25 04:44:31;;;;;;;1.05;1.05;;;8.60;99.90;;;;;;5097553;28;20098;-74
2023/05/25 04:46:58;;;;;;;0.50;0.50;;;8.80;99.90;;;;;;5069699;28;20501;-74
2023/05/25 04:49:25;;;;;;;0.52;0.52;;;8.70;99.90;;;;;;5069341;28;20410;-74
2023/05/25 04:51:51;;;;;;;0.50;0.50;;;8.80;99.90;;;;;;5070071;28;20466;-75
2023/05/25 04:54:17;;;;;;;0.50;0.50;;;9.00;99.90;;;;;;5069361;28;20064;-74
2023/05/25 04:56:43;;;;;;;3.72;3.40;;;9.00;99.90;;;;;;5069615;28;20139;-74
2023/05/25 04:59:09;;;;;;;;;;;9.00;99.90;;;;;;5069714;28;20053;-73
2023/05/25 05:01:39;;;;;;;0.45;0.45;;;9.10;99.90;;;;;;5068794;28;19923;-74
2023/05/25 05:04:06;;;;;;;0.50;0.50;;;9.20;99.90;;;;;;5085012;28;20079;-74
2023/05/25 05:06:33;;;;;;;0.68;0.68;;;9.30;99.90;;;;;;5104355;28;20094;-74
2023/05/25 05:08:59;;;;;;;0.47;0.47;;;9.50;99.90;;;;;;5052773;28;20055;-74
2023/05/25 05:11:24;;;;;;;;;;;9.60;99.90;;;;;;5069074;28;20127;-74
2023/05/25 05:13:50;;;;;;;0.40;0.40;;;9.80;99.90;;;;;;5068970;28;20014;-75
2023/05/25 05:16:16;;;;;;;0.75;0.75;;;10.00;99.90;;;;;;5052426;28;20217;-75
2023/05/25 05:18:41;;;;;;;0.73;0.70;;;10.20;99.90;;;;;;5052779;28;20189;-74
2023/05/25 05:21:07;;;;;;;0.40;0.40;;;10.50;99.90;;;;;;5052712;28;20414;-74
2023/05/25 05:23:33;;;;;;;0.57;0.57;;;10.60;99.90;;;;;;5068099;28;20434;-74
2023/05/25 05:25:59;;;;;;;;;;;10.80;99.90;;;;;;5068936;28;20131;-74
2023/05/25 05:28:26;;;;;;;0.50;0.50;;;11.00;99.90;;;;;;5068437;28;20066;-73
2023/05/25 05:30:52;;;;;;;1.58;0.88;;;11.20;99.90;;;;;;5051507;28;20147;-74
2023/05/25 05:33:18;;;;;;;0.40;0.40;;;11.40;99.90;;;;;;5067514;28;20032;-74
2023/05/25 05:35:44;;;;;;;0.35;0.35;;;11.60;99.90;;;;;;5067764;28;20546;-75
2023/05/25 05:38:10;;;;;;;;;;;11.70;99.90;;;;;;5052225;28;20044;-75
2023/05/25 05:40:35;;;;;;;0.50;0.50;;;11.80;99.90;;;;;;5068370;28;19943;-74
2023/05/25 05:43:01;;;;;;;0.93;0.50;;;11.90;99.90;;;;;;5078688;28;20129;-75
2023/05/25 05:45:27;;;;;;;0.50;0.50;;;12.00;99.90;;;;;;5055679;28;20399;-75
2023/05/25 05:47:52;;;;;;;0.30;0.30;;;12.00;99.90;;;;;;5051745;28;20185;-75
2023/05/25 05:50:18;;;;;;;;;;;12.10;99.90;;;;;;5051486;28;20041;-74
2023/05/25 05:52:44;;;;;;;0.75;0.75;;;12.20;99.90;;;;;;5051427;28;20017;-75
2023/05/25 05:55:09;;;;;;;0.47;0.47;;;12.30;99.90;;;;;;5035139;28;20389;-74
2023/05/25 05:57:35;;;;;;;0.30;0.30;;;12.40;99.90;;;;;;5068129;28;20454;-74
2023/05/25 06:00:04;;;;;;;0.40;0.40;;;12.50;99.90;;;;;;5081685;28;20505;-74
2023/05/25 06:02:29;;;;;;;0.57;0.57;;;12.60;99.90;;;;;;5088549;28;20315;-74
2023/05/25 06:04:55;;;;;;;0.30;0.30;;;12.60;99.90;;;;;;5069865;28;20044;-74
2023/05/25 06:07:21;;;;;;;0.75;0.75;;;12.70;99.90;;;;;;5068256;28;20055;-74
2023/05/25 06:09:46;;;;;;;0.20;0.20;;;12.70;99.90;;;;;;5068731;28;20043;-75
2023/05/25 06:12:12;;;;;;;0.60;0.60;;;12.70;99.90;;;;;;5068943;28;20072;-75
2023/05/25 06:14:38;;;;;;;2.05;1.90;;;12.60;99.90;;;;;;5068102;28;20067;-75
2023/05/25 06:17:04;;;;;;;0.40;0.40;;;12.70;99.90;;;;;;5069047;28;20109;-75
2023/05/25 06:19:29;;;;;;;0.43;0.43;;;12.70;99.90;;;;;;5055661;28;20059;-75
2023/05/25 06:21:55;;;;;;;1.02;1.02;;;12.70;99.90;;;;;;5072197;28;20045;-75
2023/05/25 06:24:21;;;;;;;1.27;0.50;;;12.80;99.90;;;;;;5055603;28;20048;-74
2023/05/25 06:26:46;;;;;;;;;;;12.90;99.90;;;;;;5072952;28;20486;-73
2023/05/25 06:29:13;;;;;;;0.30;0.30;;;13.10;99.90;;;;;;5072165;28;19920;-74
2023/05/25 06:31:38;;;;;;;1.20;1.20;;;13.30;99.90;;;;;;5072000;28;20098;-74
2023/05/25 06:34:04;;;;;;;0.40;0.40;;;13.40;99.90;;;;;;5072973;28;20032;-73
2023/05/25 06:36:31;;;;;;;0.45;0.45;;;13.30;99.90;;;;;;5055916;28;20600;-74
2023/05/25 06:38:57;;;;;;;0.30;0.30;;;13.40;99.90;;;;;;5072162;28;20055;-74
2023/05/25 06:41:22;;;;;;;0.70;0.70;;;13.50;99.90;;;;;;5071606;28;20040;-74
2023/05/25 06:43:48;;;;;;;0.30;0.30;;;13.80;99.90;;;;;;5085925;28;20127;-74
2023/05/25 06:46:16;;;;;;;0.75;0.75;;;13.90;99.90;;;;;;5071481;28;20383;-74
2023/05/25 06:48:42;;;;;;;0.25;0.25;;;13.90;99.90;;;;;;5071718;28;20044;-74
2023/05/25 06:51:08;;;;;;;;;;;13.90;99.90;;;;;;5071945;28;20079;-74
2023/05/25 06:53:34;;;;;;;0.40;0.40;;;13.80;99.90;;;;;;5073140;28;20366;-74
2023/05/25 06:55:59;;;;;;;0.57;0.57;;;13.70;99.90;;;;;;5065687;28;20119;-75
2023/05/25 06:58:26;;;;;;;0.43;0.43;;;13.60;99.90;;;;;;5108793;28;20454;-75
2023/05/25 07:00:51;;;;;;;0.70;0.70;;;13.50;99.90;;;;;;5058500;28;20048;-75
2023/05/25 07:03:17;;;;;;;0.63;0.63;;;13.30;99.90;;;;;;5054828;28;20093;-74
2023/05/25 07:05:43;;;;;;;0.20;0.20;;;13.30;99.90;;;;;;5071577;28;20139;-74
2023/05/25 07:08:08;;;;;;;;;;;13.50;99.90;;;;;;5071693;28;20486;-75
2023/05/25 07:10:34;;;;;;;0.60;0.60;;;13.60;99.90;;;;;;5070882;28;19916;-74
2023/05/25 07:13:00;;;;;;;0.30;0.30;;;13.80;99.90;;;;;;5071809;28;20093;-74
2023/05/25 07:15:25;;;;;;;1.58;1.48;;;13.90;99.90;;;;;;5070924;28;20044;-74
2023/05/25 07:17:51;;;;;;;0.35;0.35;;;14.00;99.90;;;;;;5055797;28;20482;-74
2023/05/25 07:20:17;;;;;;;0.15;0.15;;;13.90;99.90;;;;;;5072409;28;20123;-74
2023/05/25 07:22:46;;;;;;;0.43;0.43;;;13.80;99.90;;;;;;5054437;28;20143;-74
2023/05/25 07:25:11;;;;;;;0.20;0.20;;;13.90;99.90;;;;;;5070924;28;20060;-75
2023/05/25 07:27:38;;;;;;;0.30;0.30;;;13.80;99.90;;;;;;5054127;28;20519;-75
2023/05/25 07:30:05;;;;;;;0.30;0.30;;;13.90;99.90;;;;;;5070522;28;20028;-75
2023/05/25 07:32:31;;;;;;;0.52;0.52;;;13.80;99.90;;;;;;5070791;28;20486;-75
2023/05/25 07:34:56;;;;;;;0.30;0.30;;;13.60;99.90;;;;;;5070977;28;20037;-75
2023/05/25 07:37:22;;;;;;;0.22;0.22;;;13.60;99.90;;;;;;5070383;28;20052;-74
2023/05/25 07:39:49;;;;;;;0.43;0.43;;;13.70;99.90;;;;;;5072153;28;20056;-75
2023/05/25 07:42:19;;;;;;;0.50;0.50;;;13.70;99.90;;;;;;5074310;28;20075;-75
2023/05/25 07:44:46;;;;;;;0.50;0.50;;;13.80;99.90;;;;;;5080533;28;20044;-74
2023/05/25 07:47:11;;;;;;;2.63;0.60;;;13.70;99.90;;;;;;5071348;28;20522;-74
2023/05/25 07:49:37;;;;;;;0.57;0.52;;;13.70;99.90;;;;;;5071109;28;20143;-73
2023/05/25 07:52:04;;;;;;;6.90;1.23;;;13.60;99.90;;;;;;5080163;28;20070;-73
2023/05/25 07:54:30;;;;;;;0.75;0.75;;;13.70;99.90;;;;;;5047428;28;20036;-73
2023/05/25 07:56:56;;;;;;;1.48;1.38;;;13.80;99.90;;;;;;5053897;28;20063;-74
2023/05/25 07:59:22;;;;;;;0.40;0.40;;;13.80;99.90;;;;;;5070329;28;20045;-74
2023/05/25 08:01:47;;;;;;;0.40;0.40;;;13.90;99.90;;;;;;5070242;28;20076;-74
2023/05/25 08:04:13;;;;;;;;;;;14.00;99.90;;;;;;5070812;28;20052;-74
2023/05/25 08:06:39;;;;;;;0.30;0.30;;;14.20;99.90;;;;;;5069720;28;20349;-75
2023/05/25 08:09:06;;;;;;;0.20;0.20;;;14.40;99.90;;;;;;5053243;28;20048;-74
2023/05/25 08:11:32;;;;;;;1.60;1.50;;;14.50;99.90;;;;;;5070258;28;20086;-74
2023/05/25 08:13:58;;;;;;;0.38;0.38;;;14.70;99.90;;;;;;5069913;28;20541;-74
2023/05/25 08:16:24;;;;;;;0.50;0.50;;;14.70;99.90;;;;;;5069744;28;20540;-74
2023/05/25 08:18:51;;;;;;;0.30;0.30;;;14.70;99.90;;;;;;5052955;28;20059;-74
2023/05/25 08:21:17;;;;;;;2.53;1.55;;;14.40;99.90;;;;;;5053393;28;20048;-74
2023/05/25 08:23:42;;;;;;;0.63;0.63;;;14.30;99.90;;;;;;5070151;28;20367;-74
2023/05/25 08:26:10;;;;;;;0.30;0.30;;;14.40;99.90;;;;;;5054150;28;20048;-74
2023/05/25 08:28:36;;;;;;;0.75;0.43;;;14.50;99.90;;;;;;5070334;28;20400;-74
2023/05/25 08:31:03;;;;;;;0.22;0.22;;;14.50;99.90;;;;;;5053844;28;20390;-74
2023/05/25 08:33:29;;;;;;;0.45;0.45;;;14.40;99.90;;;;;;5070521;28;20068;-74
2023/05/25 08:35:55;;;;;;;0.30;0.30;;;14.40;99.90;;;;;;5070860;28;20057;-74
2023/05/25 08:38:24;;;;;;;3.42;1.48;;;14.60;99.90;;;;;;5069305;28;20055;-73
2023/05/25 08:41:04;;;;;;;1.52;1.42;;;14.90;99.90;;;;;;5069154;28;20055;-74
2023/05/25 08:43:31;;;;;;;0.88;0.40;;;15.10;99.90;;;;;;5083297;28;20499;-74
2023/05/25 08:46:05;;;;;;;0.30;0.30;;;15.30;99.90;;;;;;5053122;28;20049;-74
2023/05/25 08:48:33;;;;;;;0.30;0.30;;;15.40;99.90;;;;;;5074628;28;20158;-73
2023/05/25 08:51:07;;;;;;;0.30;0.30;;;15.50;99.90;;;;;;5071231;28;20063;-74
2023/05/25 08:53:36;;;;;;;0.68;0.68;;;15.50;99.90;;;;;;5056426;28;20386;-74
2023/05/25 08:56:12;;;;;;;0.30;0.30;;;15.60;99.90;;;;;;5069499;28;20048;-74
2023/05/25 08:59:04;;;;;;;0.38;0.38;;;15.50;99.90;;;;;;5069110;28;20043;-75
2023/05/25 09:01:37;;;;;;;0.60;0.60;;;15.20;99.90;;;;;;5043161;28;20186;-74
2023/05/25 09:04:03;;;;;;;1.20;1.10;;;14.70;99.90;;;;;;5069263;28;20110;-75
2023/05/25 09:06:29;;;;;;;0.40;0.40;;;14.50;99.90;;;;;;5069990;28;20040;-75
2023/05/25 09:08:55;;;;;;;0.30;0.30;;;14.70;99.90;;;;;;5054124;28;20076;-74
2023/05/25 09:11:22;;;;;;;0.25;0.25;;;14.80;99.90;;;;;;5052460;28;20125;-75
2023/05/25 09:13:47;;;;;;;0.30;0.30;;;15.20;99.90;;;;;;5068832;28;20039;-74
2023/05/25 09:16:15;;;;;;;0.40;0.40;;;15.20;99.90;;;;;;5069703;28;20044;-75
2023/05/25 09:18:40;;;;;;;1.42;1.42;;;15.00;99.90;;;;;;5069074;28;20165;-74
2023/05/25 09:21:06;;;;;;;0.32;0.32;;;15.00;99.90;;;;;;5054126;28;20083;-74
2023/05/25 09:23:33;;;;;;;;;;;15.00;99.90;;;;;;5070391;28;20044;-74
2023/05/25 09:26:00;;;;;;;0.30;0.30;;;14.80;99.90;;;;;;5058444;28;20369;-74
2023/05/25 09:28:26;;;;;;;0.80;0.80;;;14.60;99.90;;;;;;5033756;28;20177;-75
2023/05/25 09:30:52;;;;;;;1.30;1.23;;;14.70;99.90;;;;;;5049663;28;20492;-75
2023/05/25 09:33:18;;;;;;;0.28;0.28;;;14.80;99.90;;;;;;5050625;28;20417;-75
2023/05/25 09:35:45;;;;;;;1.05;0.95;;;15.00;99.90;;;;;;5068650;28;20095;-74
2023/05/25 09:38:15;;;;;;;0.30;0.30;;;15.20;99.90;;;;;;5068622;28;20045;-75
2023/05/25 09:40:41;;;;;;;0.40;0.40;;;15.50;99.90;;;;;;5069816;28;20101;-74
2023/05/25 09:43:07;;;;;;;0.40;0.40;;;16.00;99.90;;;;;;5079859;28;20040;-75
2023/05/25 09:45:32;;;;;;;;;;;16.00;99.90;;;;;;5055054;28;20482;-75
2023/05/25 09:47:58;;;;;;;0.50;0.50;;;15.90;99.90;;;;;;5066098;28;19923;-75
2023/05/25 09:50:31;;;;;;;;;;;15.80;99.90;;;;;;5050744;28;20076;-75
2023/05/25 09:53:01;;;;;;;0.20;0.20;;;15.40;99.90;;;;;;5069167;28;20277;-74
2023/05/25 09:55:27;;;;;;;0.38;0.38;;;15.00;99.90;;;;;;5069162;28;20032;-74
2023/05/25 09:57:54;;;;;;;0.35;0.35;;;14.90;99.90;;;;;;5051943;28;20051;-75
2023/05/25 10:00:25;;;;;;;0.77;0.60;;;14.70;99.90;;;;;;5069138;28;20428;-75
2023/05/25 10:02:51;;;;;;;0.50;0.50;;;14.70;99.90;;;;;;5068512;28;20456;-74
2023/05/25 10:05:16;;;;;;;;;;;14.80;99.90;;;;;;5068896;28;20040;-75
2023/05/25 10:07:45;;;;;;;0.75;0.75;;;15.00;99.90;;;;;;5050778;28;19920;-75
2023/05/25 10:10:16;;;;;;;0.20;0.20;;;15.00;99.90;;;;;;5068572;28;20477;-75
2023/05/25 10:12:43;;;;;;;10.85;1.80;;;15.20;99.90;;;;;;5067630;28;20056;-74
2023/05/25 10:15:11;;;;;;;0.63;0.63;;;15.30;99.90;;;;;;5068218;28;20093;-74
2023/05/25 10:17:48;;;;;;;1.40;1.30;;;15.20;99.90;;;;;;5068740;28;20051;-73
2023/05/25 10:20:14;;;;;;;1.05;1.05;;;15.10;99.90;;;;;;5068043;28;20048;-74
2023/05/25 10:23:10;;;;;;;0.30;0.30;;;14.90;99.90;;;;;;5051007;28;20040;-74
2023/05/25 10:25:43;;;;;;;0.70;0.70;;;14.90;99.90;;;;;;5067358;28;20135;-74
2023/05/25 10:28:20;;;;;;;0.20;0.20;;;14.80;99.90;;;;;;5068167;28;20097;-74
2023/05/25 10:30:48;;;;;;;0.22;0.22;;;14.70;99.90;;;;;;5067687;28;20040;-73
2023/05/25 10:33:14;;;;;;;0.68;0.68;;;14.70;99.90;;;;;;5067874;28;20123;-73
2023/05/25 10:35:41;;;;;;;;;;;14.60;99.90;;;;;;5067540;28;20048;-73
2023/05/25 10:38:08;;;;;;;3.03;1.27;;;14.40;99.90;;;;;;5068059;28;19928;-75
2023/05/25 10:40:37;;;;;;;0.98;0.98;;;14.50;99.90;;;;;;5075218;28;20036;-74
2023/05/25 10:43:03;;;;;;;0.57;0.57;;;14.60;99.90;;;;;;5077195;28;20078;-74
2023/05/25 10:45:29;;;;;;;1.13;1.13;;;15.00;99.90;;;;;;5068073;28;20060;-74
2023/05/25 10:47:55;;;;;;;0.52;0.50;;;15.30;99.90;;;;;;5068059;28;20396;-74
2023/05/25 10:50:23;;;;;;;;;;;15.50;99.90;;;;;;5069110;28;20486;-74
2023/05/25 10:53:06;;;;;;;0.25;0.25;;;15.70;99.90;;;;;;5067915;28;20393;-74
2023/05/25 10:56:02;;;;;;;0.40;0.40;;;16.00;99.90;;;;;;5068265;28;20392;-74
2023/05/25 10:58:29;;;;;;;0.60;0.60;;;16.10;99.90;;;;;;5053987;28;20413;-74
2023/05/25 11:01:09;;;;;;;0.35;0.35;;;16.20;99.90;;;;;;5067658;28;20123;-74
2023/05/25 11:03:46;;;;;;;0.22;0.22;;;16.00;99.90;;;;;;5069080;28;20048;-74
2023/05/25 11:06:17;;;;;;;1.17;1.10;;;15.70;99.90;;;;;;5071090;28;20040;-74
2023/05/25 11:08:50;;;;;;;0.63;0.63;;;15.60;99.90;;;;;;5070686;28;20083;-74
2023/05/25 11:11:16;;;;;;;1.58;1.48;;;15.60;99.90;;;;;;5070964;28;20044;-74
2023/05/25 11:13:45;;;;;;;;;;;16.10;99.90;;;;;;5054735;28;20048;-74
2023/05/25 11:16:34;;;;;;;0.22;0.22;;;16.40;99.90;;;;;;5071347;28;19927;-74
2023/05/25 11:19:01;;;;;;;0.20;0.20;;;16.60;99.90;;;;;;5073674;28;20037;-73
2023/05/25 11:21:26;;;;;;;0.28;0.28;;;16.80;99.90;;;;;;5071608;28;20044;-74
2023/05/25 11:23:56;;;;;;;;;;;16.90;99.90;;;;;;5071619;28;20052;-76
2023/05/25 11:26:24;;;;;;;0.20;0.20;;;16.70;99.90;;;;;;5056394;28;19926;-75
2023/05/25 11:28:51;;;;;;;0.63;0.63;;;16.40;99.90;;;;;;5050756;28;20145;-74
2023/05/25 11:31:28;;;;;;;0.60;0.60;;;16.20;99.90;;;;;;5033908;28;20041;-74
2023/05/25 11:34:04;;;;;;;0.38;0.38;;;16.20;99.90;;;;;;5057550;28;20188;-74
2023/05/25 11:36:32;;;;;;;2.85;1.05;;;16.30;99.90;;;;;;5075310;28;20497;-74
2023/05/25 11:39:00;;;;;;;0.45;0.45;;;16.30;99.90;;;;;;5057281;28;20501;-74
2023/05/25 11:41:26;;;;;;;1.08;0.25;;;16.10;99.90;;;;;;5047221;28;20104;-73
2023/05/25 11:43:52;;;;;;;0.28;0.28;;;15.90;99.90;;;;;;5084553;28;20051;-74
2023/05/25 11:46:18;;;;;;;;;;;15.90;99.90;;;;;;5070893;28;20079;-73
2023/05/25 11:48:48;;;;;;;0.38;0.38;;;16.00;99.90;;;;;;5071942;28;19928;-74
2023/05/25 11:51:14;;;;;;;0.52;0.52;;;16.00;99.90;;;;;;5072901;28;20052;-74
2023/05/25 11:53:46;;;;;;;0.75;0.75;;;16.00;99.90;;;;;;5071794;28;20145;-74
2023/05/25 11:56:13;;;;;;;0.52;0.52;;;16.20;99.90;;;;;;5071097;28;20146;-74
2023/05/25 11:58:40;;;;;;;0.20;0.20;;;16.20;99.90;;;;;;5070869;28;20037;-74
2023/05/25 12:01:13;;;;;;;0.30;0.30;;;16.10;99.90;;;;;;5070133;28;20127;-74
2023/05/25 12:03:39;;;;;;;0.28;0.28;;;16.30;99.90;;;;;;5071124;28;20489;-75
2023/05/25 12:06:04;;;;;;;;;;;16.50;99.90;;;;;;5054904;28;20540;-73
2023/05/25 12:08:34;;;;;;;0.50;0.50;;;16.30;99.90;;;;;;5071606;28;19926;-73
2023/05/25 12:11:01;;;;;;;0.20;0.20;;;16.30;99.90;;;;;;5070678;28;20389;-74
2023/05/25 12:13:26;;;;;;;0.47;0.47;;;16.30;99.90;;;;;;5053652;28;20116;-74
2023/05/25 12:15:56;;;;;;;0.30;0.30;;;16.10;99.90;;;;;;5052536;28;20119;-74
2023/05/25 12:18:23;;;;;;;0.10;0.10;;;16.20;99.90;;;;;;5053932;28;20124;-75
2023/05/25 12:20:50;;;;;;;1.13;1.00;;;16.40;99.90;;;;;;5069869;28;20053;-73
2023/05/25 12:23:16;;;;;;;0.40;0.38;;;16.30;99.90;;;;;;5069979;28;20493;-74
2023/05/25 12:25:42;;;;;;;0.30;0.30;;;16.30;99.90;;;;;;5060368;28;20053;-73
2023/05/25 12:28:14;;;;;;;7.90;1.65;;;16.50;99.90;;;;;;5033292;28;20056;-73
2023/05/25 12:30:40;;;;;;;0.40;0.40;;;16.60;99.90;;;;;;5050229;28;20135;-74
2023/05/25 12:33:06;;;;;;;;;;;16.70;99.90;;;;;;5065076;28;20335;-74
2023/05/25 12:35:46;;;;;;;16.55;1.23;;;17.10;99.90;;;;;;5069423;28;19993;-73
2023/05/25 12:38:13;;;;;;;0.57;0.57;;;17.20;99.90;;;;;;5054727;28;20053;-74
2023/05/25 12:40:42;;;;;;;0.30;0.30;;;17.00;99.90;;;;;;5049337;28;20044;-74
2023/05/25 12:43:10;;;;;;;6.43;0.73;;;16.60;99.90;;;;;;5071927;28;20044;-75
2023/05/25 12:45:42;;;;;;;0.63;0.63;;;16.60;99.90;;;;;;5073573;28;20050;-75
2023/05/25 12:48:08;;;;;;;0.20;0.20;;;16.40;99.90;;;;;;5068382;28;20083;-74
2023/05/25 12:50:34;;;;;;;1.08;1.00;;;16.80;99.90;;;;;;5053135;28;20048;-74
2023/05/25 12:53:01;;;;;;;0.50;0.50;;;17.00;99.90;;;;;;5068026;28;20078;-74
2023/05/25 12:55:33;;;;;;;2.38;2.28;;;16.70;99.90;;;;;;5069335;28;20044;-74
2023/05/25 12:58:06;;;;;;;0.20;0.20;;;16.60;99.90;;;;;;5069278;28;20040;-75
2023/05/25 13:00:40;;;;;;;1.55;0.73;;;16.60;99.90;;;;;;5052418;28;20539;-74